Time;durP1;ratioP1;P1;durP2;ratioP2;P2;SDS_P1;SDS_P2;PMS_P1;PMS_P2;Temp;Humidity;BMP_temperature;BMP_pressure;BME280_temperature;BME280_humidity;BME280_pressure;Samples;Min_cycle;Max_cycle;Signal;HPM_P1;HPM_P2
2024/02/18 00:01:41;;;;;;;6.75;3.47;;;12.10;90.80;;;;;;5092197;28;20045;-35
2024/02/18 00:04:07;;;;;;;7.95;4.00;;;12.10;90.90;;;;;;5092497;28;20489;-31
2024/02/18 00:06:33;;;;;;;8.07;3.50;;;12.00;90.90;;;;;;5092029;28;20125;-37
2024/02/18 00:08:59;;;;;;;9.00;3.60;;;12.00;90.90;;;;;;5091959;28;20358;-34
2024/02/18 00:11:25;;;;;;;8.40;3.75;;;12.00;90.90;;;;;;5092017;28;20067;-31
2024/02/18 00:13:51;;;;;;;6.07;3.63;;;12.00;90.90;;;;;;5092213;28;20024;-33
2024/02/18 00:16:16;;;;;;;5.68;3.42;;;12.00;90.80;;;;;;5092157;28;20465;-33
2024/02/18 00:18:42;;;;;;;6.45;3.45;;;12.00;90.80;;;;;;5092048;28;20032;-34
2024/02/18 00:21:08;;;;;;;8.98;3.72;;;12.00;90.80;;;;;;5092032;28;20016;-32
2024/02/18 00:23:33;;;;;;;7.40;3.60;;;12.00;90.80;;;;;;5092056;28;20437;-33
2024/02/18 00:25:59;;;;;;;8.55;3.50;;;12.00;90.70;;;;;;5091982;28;20109;-32
2024/02/18 00:28:25;;;;;;;7.53;3.20;;;12.00;90.70;;;;;;5091972;28;20498;-32
2024/02/18 00:30:50;;;;;;;7.65;3.50;;;12.00;90.70;;;;;;5091856;28;20032;-31
2024/02/18 00:33:19;;;;;;;5.50;3.03;;;12.00;90.60;;;;;;5092059;28;20044;-32
2024/02/18 00:35:44;;;;;;;6.70;3.00;;;12.00;90.60;;;;;;5092077;28;20484;-35
2024/02/18 00:38:10;;;;;;;10.23;3.53;;;12.00;90.60;;;;;;5092062;28;20066;-31
2024/02/18 00:40:36;;;;;;;6.68;3.38;;;12.00;90.60;;;;;;5092112;28;20016;-32
2024/02/18 00:43:02;;;;;;;6.38;3.20;;;12.00;90.50;;;;;;5091909;28;20503;-32
2024/02/18 00:45:27;;;;;;;6.60;3.17;;;12.00;90.50;;;;;;5091858;28;20020;-32
2024/02/18 00:47:53;;;;;;;5.97;2.83;;;12.00;90.50;;;;;;5092013;28;20031;-33
2024/02/18 00:50:19;;;;;;;3.47;2.70;;;12.00;90.50;;;;;;5092929;28;20077;-33
2024/02/18 00:52:45;;;;;;;8.15;3.08;;;12.00;90.50;;;;;;5095778;28;20491;-34
2024/02/18 00:55:10;;;;;;;8.20;3.10;;;12.00;90.50;;;;;;5095412;28;20025;-31
2024/02/18 00:57:36;;;;;;;5.85;2.90;;;11.90;90.40;;;;;;5095599;28;20172;-31
2024/02/18 01:00:02;;;;;;;6.68;2.72;;;11.90;90.50;;;;;;5095686;28;20024;-32
2024/02/18 01:02:29;;;;;;;6.40;3.00;;;11.80;90.40;;;;;;5095485;28;20107;-31
2024/02/18 01:04:56;;;;;;;6.03;2.60;;;11.90;90.50;;;;;;5095315;28;20020;-31
2024/02/18 01:07:21;;;;;;;5.30;2.75;;;11.80;90.40;;;;;;5095097;28;20079;-31
2024/02/18 01:09:49;;;;;;;4.32;2.58;;;11.80;90.40;;;;;;5095342;28;20040;-31
2024/02/18 01:12:16;;;;;;;6.80;3.00;;;11.80;90.40;;;;;;5094052;28;20031;-30
2024/02/18 01:14:43;;;;;;;7.15;2.80;;;11.80;90.40;;;;;;5095027;28;20052;-32
2024/02/18 01:17:09;;;;;;;8.55;3.20;;;11.80;90.40;;;;;;5093715;28;20455;-34
2024/02/18 01:19:34;;;;;;;6.32;2.60;;;11.80;90.40;;;;;;5093988;28;20051;-45
2024/02/18 01:22:00;;;;;;;5.07;2.50;;;11.80;90.30;;;;;;5093539;28;20020;-32
2024/02/18 01:24:25;;;;;;;4.60;2.80;;;11.90;90.40;;;;;;5094803;28;20016;-32
2024/02/18 01:26:51;;;;;;;3.65;2.30;;;11.80;90.30;;;;;;5094946;28;20032;-32
2024/02/18 01:29:16;;;;;;;10.23;2.63;;;11.80;90.30;;;;;;5094649;28;20473;-34
2024/02/18 01:31:42;;;;;;;6.05;2.40;;;11.80;90.30;;;;;;5094659;28;20040;-34
2024/02/18 01:34:09;;;;;;;5.13;2.72;;;11.80;90.30;;;;;;5094746;28;20036;-31
2024/02/18 01:36:35;;;;;;;3.78;2.42;;;11.80;90.30;;;;;;5094469;28;20112;-32
2024/02/18 01:39:01;;;;;;;3.72;2.22;;;11.80;90.30;;;;;;5093903;28;20118;-46
2024/02/18 01:41:27;;;;;;;5.85;2.33;;;11.80;90.20;;;;;;5093899;28;20013;-46
2024/02/18 01:43:53;;;;;;;5.93;2.60;;;11.80;90.20;;;;;;5093691;28;20047;-47
2024/02/18 01:46:19;;;;;;;3.92;1.95;;;11.80;90.20;;;;;;5093588;28;20066;-45
2024/02/18 01:48:45;;;;;;;6.07;2.60;;;11.90;90.10;;;;;;5093413;28;20476;-47
2024/02/18 01:51:11;;;;;;;6.82;2.47;;;11.90;90.10;;;;;;5093789;28;20073;-46
2024/02/18 01:53:38;;;;;;;7.07;2.40;;;11.90;90.10;;;;;;5093482;28;20024;-44
2024/02/18 01:56:05;;;;;;;5.32;2.40;;;11.90;90.10;;;;;;5093451;28;20058;-46
2024/02/18 01:58:32;;;;;;;5.60;2.28;;;11.90;90.10;;;;;;5093351;28;20031;-47
2024/02/18 02:00:58;;;;;;;8.43;2.50;;;11.90;90.00;;;;;;5092491;28;20021;-46
2024/02/18 02:03:24;;;;;;;6.88;2.60;;;11.90;90.00;;;;;;5093383;28;20101;-46
2024/02/18 02:05:52;;;;;;;7.40;2.42;;;11.90;90.00;;;;;;5093082;28;20051;-45
2024/02/18 02:08:18;;;;;;;6.75;2.38;;;11.90;90.00;;;;;;5093572;28;20028;-46
2024/02/18 02:10:43;;;;;;;9.77;3.10;;;11.90;89.90;;;;;;5092862;28;20059;-46
2024/02/18 02:13:09;;;;;;;5.57;2.55;;;11.90;89.90;;;;;;5093140;28;20059;-44
2024/02/18 02:15:35;;;;;;;4.63;2.60;;;11.90;89.80;;;;;;5093103;28;20026;-45
2024/02/18 02:18:01;;;;;;;7.60;2.70;;;11.90;89.80;;;;;;5092931;28;20099;-46
2024/02/18 02:20:27;;;;;;;6.45;2.47;;;11.90;89.70;;;;;;5093274;28;20020;-47
2024/02/18 02:22:53;;;;;;;6.15;2.60;;;11.90;89.60;;;;;;5093436;28;20027;-46
2024/02/18 02:25:18;;;;;;;7.75;2.95;;;11.90;89.50;;;;;;5092935;28;20099;-45
2024/02/18 02:27:48;;;;;;;5.47;2.60;;;11.90;89.30;;;;;;5093124;28;20163;-44
2024/02/18 02:30:14;;;;;;;5.97;2.60;;;11.90;89.20;;;;;;5092992;28;20031;-47
2024/02/18 02:32:39;;;;;;;5.35;2.67;;;11.90;89.20;;;;;;5093142;28;20403;-45
2024/02/18 02:35:06;;;;;;;6.30;2.90;;;11.90;89.10;;;;;;5092808;28;20081;-46
2024/02/18 02:37:32;;;;;;;5.32;2.72;;;11.90;89.00;;;;;;5092882;28;20032;-45
2024/02/18 02:39:57;;;;;;;7.10;3.08;;;11.90;89.00;;;;;;5092529;28;20026;-43
2024/02/18 02:42:23;;;;;;;6.20;2.92;;;11.90;89.00;;;;;;5092907;28;20476;-46
2024/02/18 02:44:48;;;;;;;7.28;2.65;;;11.90;89.00;;;;;;5092843;28;20024;-45
2024/02/18 02:47:14;;;;;;;5.00;2.60;;;11.90;88.90;;;;;;5092241;28;20028;-46
2024/02/18 02:49:40;;;;;;;4.45;2.50;;;12.00;89.00;;;;;;5091202;28;20016;-46
2024/02/18 02:52:06;;;;;;;7.15;2.92;;;12.00;88.90;;;;;;5092329;28;20055;-46
2024/02/18 02:54:31;;;;;;;6.38;2.88;;;12.00;88.80;;;;;;5092485;28;20373;-44
2024/02/18 02:56:57;;;;;;;8.88;2.70;;;12.00;88.80;;;;;;5091252;28;20023;-44
2024/02/18 02:59:23;;;;;;;5.90;2.53;;;11.90;88.70;;;;;;5092288;28;20472;-45
2024/02/18 03:01:48;;;;;;;7.72;2.50;;;12.00;88.80;;;;;;5092419;28;20046;-45
2024/02/18 03:04:14;;;;;;;5.80;2.70;;;12.00;88.70;;;;;;5092195;28;20020;-47
2024/02/18 03:06:39;;;;;;;5.15;2.60;;;12.00;88.80;;;;;;5092037;28;20016;-47
2024/02/18 03:09:05;;;;;;;7.40;2.50;;;12.00;88.70;;;;;;5092387;28;20032;-46
2024/02/18 03:11:31;;;;;;;5.38;2.63;;;12.00;88.70;;;;;;5091950;28;20039;-45
2024/02/18 03:13:56;;;;;;;4.97;2.40;;;12.00;88.60;;;;;;5091341;28;20035;-45
2024/02/18 03:16:22;;;;;;;5.60;2.92;;;12.00;88.60;;;;;;5091859;28;20024;-46
2024/02/18 03:18:48;;;;;;;5.30;2.47;;;12.00;88.60;;;;;;5091869;28;20020;-43
2024/02/18 03:21:13;;;;;;;6.57;2.20;;;12.10;88.60;;;;;;5092132;28;20107;-46
2024/02/18 03:23:39;;;;;;;6.90;2.45;;;12.00;88.50;;;;;;5091821;28;20585;-47
2024/02/18 03:26:05;;;;;;;5.90;2.60;;;12.00;88.40;;;;;;5091703;28;20033;-49
2024/02/18 03:28:30;;;;;;;6.30;2.60;;;12.10;88.50;;;;;;5090308;28;20032;-45
2024/02/18 03:30:56;;;;;;;4.45;2.08;;;12.10;88.50;;;;;;5091636;28;20053;-46
2024/02/18 03:33:21;;;;;;;3.97;2.15;;;12.10;88.40;;;;;;5091692;28;20039;-45
2024/02/18 03:35:47;;;;;;;4.53;2.45;;;12.10;88.40;;;;;;5090162;28;20024;-46
2024/02/18 03:38:13;;;;;;;3.85;2.17;;;12.00;88.20;;;;;;5091823;28;20085;-44
2024/02/18 03:40:40;;;;;;;5.88;2.47;;;12.00;88.20;;;;;;5091748;28;20031;-38
2024/02/18 03:43:05;;;;;;;7.40;2.13;;;12.00;88.20;;;;;;5092075;28;20458;-38
2024/02/18 03:45:31;;;;;;;3.75;2.35;;;12.00;88.30;;;;;;5091561;28;20024;-37
2024/02/18 03:47:56;;;;;;;4.00;2.10;;;12.00;88.20;;;;;;5090367;28;20035;-38
2024/02/18 03:50:22;;;;;;;4.18;2.20;;;11.90;88.20;;;;;;5091663;28;20028;-37
2024/02/18 03:52:48;;;;;;;5.57;2.25;;;11.90;88.20;;;;;;5091932;28;20031;-37
2024/02/18 03:55:14;;;;;;;5.10;2.28;;;11.90;88.20;;;;;;5091522;28;20032;-38
2024/02/18 03:57:41;;;;;;;5.03;2.10;;;11.90;88.20;;;;;;5091629;28;20028;-38
2024/02/18 04:00:09;;;;;;;4.15;2.17;;;11.90;88.20;;;;;;5091351;28;20025;-38
2024/02/18 04:02:42;;;;;;;3.90;2.17;;;11.90;88.20;;;;;;5091031;28;20034;-38
2024/02/18 04:05:10;;;;;;;4.30;2.60;;;11.90;88.20;;;;;;5091493;28;20025;-37
2024/02/18 04:07:37;;;;;;;4.75;2.22;;;11.80;88.10;;;;;;5091376;28;20093;-37
2024/02/18 04:10:04;;;;;;;5.18;2.38;;;11.80;88.20;;;;;;5091276;28;20035;-46
2024/02/18 04:12:31;;;;;;;3.17;2.00;;;11.80;88.20;;;;;;5091613;28;20690;-38
2024/02/18 04:14:56;;;;;;;7.68;2.10;;;11.80;88.20;;;;;;5091479;28;20097;-37
2024/02/18 04:17:23;;;;;;;4.60;2.33;;;11.80;88.20;;;;;;5091501;28;20024;-37
2024/02/18 04:19:49;;;;;;;6.38;2.72;;;11.80;88.10;;;;;;5091371;28;20022;-37
2024/02/18 04:22:14;;;;;;;5.82;2.28;;;11.80;88.10;;;;;;5091383;28;20024;-38
2024/02/18 04:24:40;;;;;;;6.55;2.40;;;11.80;88.10;;;;;;5093029;28;20020;-37
2024/02/18 04:27:10;;;;;;;5.47;2.40;;;11.80;88.10;;;;;;5095467;28;20028;-39
2024/02/18 04:29:39;;;;;;;3.58;2.40;;;11.80;88.10;;;;;;5095762;28;20036;-36
2024/02/18 04:32:06;;;;;;;4.80;2.47;;;11.80;88.10;;;;;;5095546;28;20020;-37
2024/02/18 04:34:31;;;;;;;4.32;2.60;;;11.80;88.10;;;;;;5095099;28;20454;-37
2024/02/18 04:36:57;;;;;;;4.32;2.42;;;11.80;88.10;;;;;;5095249;28;20074;-38
2024/02/18 04:39:23;;;;;;;4.75;2.80;;;11.80;88.20;;;;;;5095151;28;20027;-37
2024/02/18 04:41:49;;;;;;;5.40;2.20;;;11.80;88.20;;;;;;5095274;28;20105;-38
2024/02/18 04:44:15;;;;;;;4.53;2.40;;;11.80;88.30;;;;;;5095365;28;20017;-37
2024/02/18 04:46:40;;;;;;;4.70;2.38;;;11.70;88.20;;;;;;5095068;28;20485;-36
2024/02/18 04:49:06;;;;;;;3.97;2.40;;;11.70;88.30;;;;;;5095185;28;20050;-38
2024/02/18 04:51:32;;;;;;;5.22;2.25;;;11.70;88.40;;;;;;5094983;28;20507;-37
2024/02/18 04:53:57;;;;;;;4.82;2.42;;;11.70;88.40;;;;;;5094964;28;20020;-38
2024/02/18 04:56:23;;;;;;;6.07;2.28;;;11.60;88.50;;;;;;5094977;28;20024;-38
2024/02/18 04:58:48;;;;;;;4.22;2.40;;;11.60;88.60;;;;;;5094963;28;20491;-37
2024/02/18 05:01:14;;;;;;;5.63;2.50;;;11.60;88.70;;;;;;5094527;28;20042;-38
2024/02/18 05:03:41;;;;;;;5.93;2.35;;;11.60;88.70;;;;;;5094722;28;20105;-36
2024/02/18 05:06:10;;;;;;;4.47;2.38;;;11.50;88.80;;;;;;5094582;28;20028;-38
2024/02/18 05:08:36;;;;;;;4.47;2.35;;;11.50;88.80;;;;;;5094661;28;20380;-37
2024/02/18 05:11:03;;;;;;;4.95;2.13;;;11.50;88.90;;;;;;5093120;28;20027;-38
2024/02/18 05:13:29;;;;;;;8.77;2.75;;;11.50;89.00;;;;;;5095047;28;20481;-37
2024/02/18 05:15:56;;;;;;;4.28;2.58;;;11.50;89.00;;;;;;5094474;28;20059;-38
2024/02/18 05:18:22;;;;;;;5.32;2.45;;;11.50;89.10;;;;;;5094724;28;20042;-37
2024/02/18 05:20:48;;;;;;;4.82;2.42;;;11.40;89.20;;;;;;5094623;28;20021;-39
2024/02/18 05:23:14;;;;;;;3.63;2.40;;;11.40;89.20;;;;;;5094472;28;20020;-37
2024/02/18 05:25:40;;;;;;;8.57;2.63;;;11.40;89.30;;;;;;5094348;28;20055;-37
2024/02/18 05:28:06;;;;;;;7.20;2.33;;;11.40;89.40;;;;;;5094364;28;20031;-38
2024/02/18 05:30:32;;;;;;;4.35;2.00;;;11.30;89.40;;;;;;5094133;28;20442;-38
2024/02/18 05:32:57;;;;;;;7.82;2.45;;;11.30;89.60;;;;;;5094145;28;20058;-39
2024/02/18 05:35:23;;;;;;;8.00;2.60;;;11.30;89.70;;;;;;5093138;28;20119;-41
2024/02/18 05:37:48;;;;;;;10.25;2.65;;;11.30;89.80;;;;;;5093596;28;20020;-39
2024/02/18 05:40:14;;;;;;;6.10;2.38;;;11.20;89.80;;;;;;5093932;28;20054;-47
2024/02/18 05:42:40;;;;;;;4.78;2.30;;;11.20;89.80;;;;;;5093921;28;20022;-38
2024/02/18 05:45:06;;;;;;;5.25;2.47;;;11.20;89.90;;;;;;5093893;28;20036;-39
2024/02/18 05:47:32;;;;;;;6.78;2.38;;;11.20;90.00;;;;;;5093932;28;20020;-37
2024/02/18 05:49:58;;;;;;;7.95;2.70;;;11.20;90.00;;;;;;5093778;28;20361;-37
2024/02/18 05:52:23;;;;;;;4.20;2.50;;;11.20;90.00;;;;;;5093957;28;20111;-37
2024/02/18 05:54:49;;;;;;;7.00;2.70;;;11.10;90.00;;;;;;5093724;28;20027;-46
2024/02/18 05:57:14;;;;;;;5.63;3.10;;;11.10;90.10;;;;;;5093814;28;20032;-37
2024/02/18 05:59:40;;;;;;;9.65;3.45;;;11.10;90.10;;;;;;5093713;28;20016;-37
2024/02/18 06:02:05;;;;;;;8.55;3.20;;;11.10;90.10;;;;;;5093619;28;20020;-38
2024/02/18 06:04:31;;;;;;;8.25;3.10;;;11.10;90.20;;;;;;5093554;28;20020;-37
2024/02/18 06:06:57;;;;;;;8.73;2.80;;;11.00;90.20;;;;;;5093827;28;20461;-38
2024/02/18 06:09:23;;;;;;;8.35;3.00;;;11.00;90.20;;;;;;5093883;28;20375;-37
2024/02/18 06:11:51;;;;;;;9.13;2.88;;;11.00;90.30;;;;;;5093693;28;20024;-37
2024/02/18 06:14:17;;;;;;;3.65;2.55;;;11.00;90.30;;;;;;5093618;28;20503;-39
2024/02/18 06:16:43;;;;;;;5.97;2.67;;;10.90;90.30;;;;;;5093165;28;20028;-40
2024/02/18 06:19:09;;;;;;;5.18;2.75;;;10.90;90.30;;;;;;5092159;28;20085;-38
2024/02/18 06:21:34;;;;;;;4.95;2.80;;;10.90;90.40;;;;;;5093398;28;20016;-37
2024/02/18 06:24:01;;;;;;;7.90;2.90;;;10.90;90.40;;;;;;5093650;28;20020;-38
2024/02/18 06:26:27;;;;;;;7.20;2.78;;;10.90;90.50;;;;;;5093550;28;20027;-38
2024/02/18 06:28:54;;;;;;;7.53;2.90;;;10.90;90.50;;;;;;5093196;28;20537;-36
2024/02/18 06:31:19;;;;;;;8.50;3.17;;;10.90;90.50;;;;;;5093340;28;20357;-38
2024/02/18 06:33:46;;;;;;;7.80;3.17;;;10.90;90.50;;;;;;5092870;28;20048;-37
2024/02/18 06:36:12;;;;;;;5.03;2.63;;;10.80;90.50;;;;;;5092982;28;20488;-38
2024/02/18 06:38:44;;;;;;;7.30;2.75;;;10.90;90.60;;;;;;5093331;28;20097;-37
2024/02/18 06:41:10;;;;;;;5.05;2.58;;;10.80;90.60;;;;;;5093132;28;20141;-37
2024/02/18 06:43:36;;;;;;;5.07;2.80;;;10.80;90.70;;;;;;5092841;28;20053;-39
2024/02/18 06:46:02;;;;;;;5.90;2.47;;;10.80;90.70;;;;;;5092588;28;20143;-38
2024/02/18 06:48:28;;;;;;;7.25;2.80;;;10.80;90.80;;;;;;5092488;28;20051;-37
2024/02/18 06:50:53;;;;;;;4.93;2.72;;;10.80;90.80;;;;;;5092362;28;20020;-36
2024/02/18 06:53:19;;;;;;;7.30;3.35;;;10.70;90.80;;;;;;5093028;28;20032;-38
2024/02/18 06:55:44;;;;;;;9.65;2.90;;;10.70;90.90;;;;;;5092389;28;20027;-42
2024/02/18 06:58:14;;;;;;;5.78;3.00;;;10.70;90.90;;;;;;5092620;28;20020;-38
2024/02/18 07:00:40;;;;;;;4.90;2.60;;;10.70;90.90;;;;;;5092600;28;20426;-38
2024/02/18 07:03:06;;;;;;;5.22;2.53;;;10.70;90.90;;;;;;5092353;28;20028;-38
2024/02/18 07:05:32;;;;;;;5.78;2.55;;;10.70;90.90;;;;;;5092583;28;20058;-37
2024/02/18 07:07:58;;;;;;;4.53;2.42;;;10.70;90.90;;;;;;5091183;28;20016;-37
2024/02/18 07:10:23;;;;;;;4.57;2.40;;;10.70;90.90;;;;;;5092002;28;20016;-37
2024/02/18 07:12:49;;;;;;;4.97;2.25;;;10.70;90.90;;;;;;5092640;28;20016;-35
2024/02/18 07:15:15;;;;;;;5.65;2.50;;;10.70;91.00;;;;;;5092363;28;20372;-41
2024/02/18 07:17:41;;;;;;;9.35;2.83;;;10.70;91.00;;;;;;5092323;28;20024;-37
2024/02/18 07:20:07;;;;;;;4.53;2.25;;;10.70;91.00;;;;;;5091936;28;20027;-36
2024/02/18 07:22:33;;;;;;;5.93;2.20;;;10.70;91.00;;;;;;5090786;28;20061;-34
2024/02/18 07:24:59;;;;;;;4.63;2.35;;;10.70;91.00;;;;;;5092064;28;20485;-36
2024/02/18 07:27:25;;;;;;;6.72;2.38;;;10.70;91.00;;;;;;5092421;28;20412;-37
2024/02/18 07:29:51;;;;;;;4.93;2.40;;;10.70;91.00;;;;;;5091904;28;20024;-34
2024/02/18 07:32:16;;;;;;;6.88;2.35;;;10.70;91.10;;;;;;5091792;28;20081;-36
2024/02/18 07:34:42;;;;;;;5.95;2.10;;;10.70;91.10;;;;;;5091848;28;20064;-37
2024/02/18 07:37:08;;;;;;;5.03;2.05;;;10.70;91.10;;;;;;5090482;28;20152;-36
2024/02/18 07:39:33;;;;;;;3.63;2.15;;;10.60;91.10;;;;;;5092133;28;20031;-35
2024/02/18 07:41:59;;;;;;;7.18;2.45;;;10.60;91.10;;;;;;5091667;28;20025;-37
2024/02/18 07:44:25;;;;;;;4.40;2.08;;;10.70;91.20;;;;;;5092094;28;20046;-37
2024/02/18 07:46:53;;;;;;;6.15;2.55;;;10.70;91.20;;;;;;5091663;28;20031;-36
2024/02/18 07:49:22;;;;;;;9.07;2.80;;;10.60;91.20;;;;;;5091804;28;20024;-37
2024/02/18 07:51:47;;;;;;;5.95;2.35;;;10.60;91.20;;;;;;5091537;28;20070;-38
2024/02/18 07:54:13;;;;;;;4.40;2.20;;;10.70;91.20;;;;;;5091518;28;20048;-35
2024/02/18 07:56:46;;;;;;;6.30;2.50;;;10.60;91.20;;;;;;5091686;28;20028;-38
2024/02/18 07:59:12;;;;;;;8.30;2.70;;;10.70;91.20;;;;;;5091445;28;20021;-37
2024/02/18 08:01:38;;;;;;;8.82;2.53;;;10.70;91.20;;;;;;5091584;28;20535;-36
2024/02/18 08:04:04;;;;;;;5.82;2.67;;;10.60;91.20;;;;;;5091478;28;20052;-36
2024/02/18 08:06:31;;;;;;;6.20;2.60;;;10.60;91.50;;;;;;5091374;28;20027;-36
2024/02/18 08:09:00;;;;;;;7.32;2.70;;;10.60;91.20;;;;;;5091676;28;20049;-39
2024/02/18 08:11:26;;;;;;;6.47;2.50;;;10.70;91.30;;;;;;5091332;28;20384;-43
2024/02/18 08:13:51;;;;;;;6.10;2.63;;;10.60;91.20;;;;;;5091539;28;20031;-38
2024/02/18 08:16:19;;;;;;;4.82;2.10;;;10.60;91.20;;;;;;5091479;28;20487;-36
2024/02/18 08:18:45;;;;;;;7.55;2.60;;;10.60;91.30;;;;;;5091240;28;20034;-35
2024/02/18 08:21:10;;;;;;;6.35;2.63;;;10.60;91.30;;;;;;5091708;28;20016;-35
2024/02/18 08:23:37;;;;;;;4.45;2.38;;;10.60;91.30;;;;;;5091345;28;20093;-36
2024/02/18 08:26:03;;;;;;;7.80;2.90;;;10.60;91.30;;;;;;5091606;28;20055;-35
2024/02/18 08:28:29;;;;;;;5.82;2.20;;;10.60;91.30;;;;;;5091561;28;20593;-37
2024/02/18 08:30:55;;;;;;;4.70;2.50;;;10.60;91.30;;;;;;5091503;28;20103;-37
2024/02/18 08:33:21;;;;;;;3.20;2.55;;;10.60;91.40;;;;;;5091506;28;20086;-37
2024/02/18 08:35:46;;;;;;;5.47;2.50;;;10.60;91.40;;;;;;5091177;28;20032;-37
2024/02/18 08:38:12;;;;;;;5.72;2.40;;;10.50;91.40;;;;;;5091062;28;20020;-35
2024/02/18 08:40:38;;;;;;;5.50;2.72;;;10.60;91.50;;;;;;5089606;28;20020;-38
2024/02/18 08:43:03;;;;;;;5.63;2.85;;;10.50;91.50;;;;;;5091474;28;20477;-36
2024/02/18 08:45:30;;;;;;;5.43;2.60;;;10.50;91.50;;;;;;5091168;28;20104;-36
2024/02/18 08:47:56;;;;;;;4.97;2.55;;;10.50;91.50;;;;;;5091328;28;20042;-37
2024/02/18 08:50:21;;;;;;;5.65;2.70;;;10.50;91.60;;;;;;5091026;28;20019;-37
2024/02/18 08:52:47;;;;;;;6.38;2.95;;;10.50;91.60;;;;;;5090889;28;20024;-37
2024/02/18 08:55:12;;;;;;;6.20;3.33;;;10.50;91.60;;;;;;5091186;28;20051;-37
2024/02/18 08:57:38;;;;;;;7.15;2.80;;;10.40;91.60;;;;;;5090877;28;20111;-37
2024/02/18 09:00:06;;;;;;;4.57;2.80;;;10.40;91.70;;;;;;5090943;28;20020;-37
2024/02/18 09:02:31;;;;;;;6.00;2.58;;;10.40;91.80;;;;;;5091157;28;20025;-37
2024/02/18 09:04:59;;;;;;;7.95;3.20;;;10.40;91.80;;;;;;5090804;28;20027;-39
2024/02/18 09:07:25;;;;;;;4.82;2.78;;;10.40;91.80;;;;;;5090764;28;20113;-37
2024/02/18 09:09:51;;;;;;;3.60;2.70;;;10.40;91.90;;;;;;5089613;28;20414;-31
2024/02/18 09:12:16;;;;;;;5.72;2.85;;;10.40;91.90;;;;;;5091842;28;20027;-38
2024/02/18 09:14:42;;;;;;;4.28;2.80;;;10.40;91.90;;;;;;5094573;28;20384;-34
2024/02/18 09:17:07;;;;;;;9.15;3.05;;;10.30;91.90;;;;;;5094220;28;20449;-36
2024/02/18 09:19:33;;;;;;;10.77;3.28;;;10.30;92.00;;;;;;5094497;28;20043;-33
2024/02/18 09:21:59;;;;;;;4.95;2.85;;;10.30;92.00;;;;;;5093150;28;20122;-37
2024/02/18 09:24:24;;;;;;;7.57;2.70;;;10.30;92.10;;;;;;5094647;28;20032;-37
2024/02/18 09:26:50;;;;;;;6.72;2.80;;;10.30;92.10;;;;;;5094657;28;20096;-34
2024/02/18 09:29:16;;;;;;;4.90;2.75;;;10.30;92.10;;;;;;5094114;28;20028;-36
2024/02/18 09:31:41;;;;;;;5.72;2.70;;;10.30;92.10;;;;;;5094471;28;20203;-36
2024/02/18 09:34:07;;;;;;;5.28;3.00;;;10.30;92.20;;;;;;5094136;28;20092;-37
2024/02/18 09:36:33;;;;;;;4.45;2.88;;;10.30;92.20;;;;;;5094071;28;20028;-36
2024/02/18 09:38:59;;;;;;;4.05;2.85;;;10.30;92.10;;;;;;5094220;28;20499;-37
2024/02/18 09:41:27;;;;;;;8.15;2.80;;;10.20;92.20;;;;;;5093968;28;20024;-35
2024/02/18 09:43:57;;;;;;;7.32;2.60;;;10.20;92.30;;;;;;5093976;28;20034;-46
2024/02/18 09:46:24;;;;;;;4.95;2.63;;;10.20;92.30;;;;;;5093711;28;20047;-35
2024/02/18 09:48:49;;;;;;;7.15;2.75;;;10.20;92.30;;;;;;5093903;28;20020;-37
2024/02/18 09:51:17;;;;;;;6.85;3.42;;;10.20;92.30;;;;;;5093872;28;20177;-36
2024/02/18 09:53:45;;;;;;;6.30;2.90;;;10.20;92.30;;;;;;5093765;28;20091;-36
2024/02/18 09:56:11;;;;;;;5.53;2.80;;;10.20;92.30;;;;;;5093859;28;20118;-36
2024/02/18 09:58:37;;;;;;;6.95;2.70;;;10.20;92.30;;;;;;5093742;28;20091;-37
2024/02/18 10:01:03;;;;;;;4.80;2.60;;;10.20;92.30;;;;;;5093771;28;20540;-35
2024/02/18 10:03:29;;;;;;;5.65;3.00;;;10.20;92.30;;;;;;5093524;28;20024;-37
2024/02/18 10:05:54;;;;;;;5.53;2.50;;;10.20;92.40;;;;;;5093828;28;20030;-35
2024/02/18 10:08:20;;;;;;;3.85;2.55;;;10.30;92.40;;;;;;5093706;28;20031;-38
2024/02/18 10:10:46;;;;;;;7.30;2.80;;;10.30;92.40;;;;;;5093390;28;20030;-35
2024/02/18 10:13:12;;;;;;;5.68;2.55;;;10.30;92.30;;;;;;5093671;28;20418;-35
2024/02/18 10:15:38;;;;;;;5.15;2.72;;;10.30;92.30;;;;;;5093312;28;20020;-42
2024/02/18 10:18:07;;;;;;;8.05;3.05;;;10.30;92.30;;;;;;5093149;28;20023;-35
2024/02/18 10:20:33;;;;;;;7.20;2.70;;;10.30;92.30;;;;;;5093427;28;20031;-36
2024/02/18 10:22:58;;;;;;;5.55;2.28;;;10.30;92.40;;;;;;5092969;28;20012;-37
2024/02/18 10:25:24;;;;;;;3.95;2.08;;;10.30;92.40;;;;;;5093061;28;20020;-35
2024/02/18 10:27:55;;;;;;;6.53;2.47;;;10.30;92.50;;;;;;5093150;28;20024;-45
2024/02/18 10:30:20;;;;;;;4.97;2.30;;;10.30;92.50;;;;;;5092835;28;20111;-37
2024/02/18 10:32:46;;;;;;;6.57;3.05;;;10.30;92.70;;;;;;5093079;28;20107;-39
2024/02/18 10:35:11;;;;;;;6.18;2.20;;;10.30;92.70;;;;;;5092975;28;20059;-36
2024/02/18 10:37:39;;;;;;;4.60;2.35;;;10.30;92.60;;;;;;5092822;28;20393;-39
2024/02/18 10:40:14;;;;;;;5.10;3.35;;;10.30;92.60;;;;;;5093033;28;20031;-37
2024/02/18 10:42:54;;;;;;;4.38;2.30;;;10.30;92.60;;;;;;5092950;28;20034;-37
2024/02/18 10:45:24;;;;;;;3.75;2.00;;;10.30;92.60;;;;;;5092643;28;20028;-37
2024/02/18 10:47:53;;;;;;;3.58;2.22;;;10.30;92.60;;;;;;5092973;28;20024;-37
2024/02/18 10:50:21;;;;;;;6.22;2.28;;;10.30;92.70;;;;;;5093187;28;20071;-37
2024/02/18 10:53:03;;;;;;;3.85;2.20;;;10.30;92.70;;;;;;5092739;28;20156;-36
2024/02/18 10:55:39;;;;;;;5.38;2.20;;;10.30;92.60;;;;;;5092586;28;20022;-37
2024/02/18 10:58:15;;;;;;;3.83;2.20;;;10.40;92.60;;;;;;5092481;28;20111;-36
2024/02/18 11:00:45;;;;;;;5.00;2.08;;;10.40;92.60;;;;;;5092654;28;20024;-35
2024/02/18 11:03:47;;;;;;;7.38;2.35;;;10.40;92.60;;;;;;5092497;28;20027;-37
2024/02/18 11:06:13;;;;;;;4.10;1.90;;;10.50;92.60;;;;;;5092506;28;20157;-36
2024/02/18 11:08:40;;;;;;;4.60;2.05;;;10.50;92.50;;;;;;5091182;28;20032;-36
2024/02/18 11:11:08;;;;;;;4.38;1.95;;;10.60;92.50;;;;;;5092140;28;20473;-35
2024/02/18 11:13:35;;;;;;;4.57;1.95;;;10.60;92.40;;;;;;5092273;28;20024;-37
2024/02/18 11:16:06;;;;;;;4.28;2.20;;;10.60;92.30;;;;;;5092150;28;20024;-36
2024/02/18 11:18:32;;;;;;;5.28;1.98;;;10.50;92.30;;;;;;5091140;28;20099;-38
2024/02/18 11:20:58;;;;;;;4.28;1.85;;;10.50;92.50;;;;;;5092325;28;20020;-37
2024/02/18 11:23:24;;;;;;;4.63;1.98;;;10.50;92.40;;;;;;5092611;28;20016;-33
2024/02/18 11:25:50;;;;;;;5.05;2.30;;;10.50;92.50;;;;;;5092204;28;20038;-40
2024/02/18 11:28:17;;;;;;;5.20;2.38;;;10.50;92.50;;;;;;5092300;28;20023;-35
2024/02/18 11:30:43;;;;;;;6.68;2.53;;;10.50;92.50;;;;;;5092288;28;20028;-37
2024/02/18 11:33:08;;;;;;;6.50;2.40;;;10.40;92.40;;;;;;5091997;28;20522;-36
2024/02/18 11:35:34;;;;;;;4.40;2.22;;;10.40;92.40;;;;;;5091373;28;20028;-33
2024/02/18 11:38:01;;;;;;;8.80;2.53;;;10.40;92.40;;;;;;5092120;28;20106;-30
2024/02/18 11:40:28;;;;;;;8.48;2.88;;;10.30;92.50;;;;;;5091858;28;20077;-32
2024/02/18 11:42:54;;;;;;;5.30;2.25;;;10.30;92.70;;;;;;5091703;28;20059;-32
2024/02/18 11:45:20;;;;;;;5.88;2.20;;;10.30;92.70;;;;;;5091779;28;20028;-29
2024/02/18 11:47:55;;;;;;;5.05;2.10;;;10.20;92.70;;;;;;5091897;28;20032;-34
2024/02/18 11:50:24;;;;;;;3.85;2.05;;;10.20;92.80;;;;;;5091465;28;20024;-30
2024/02/18 11:52:50;;;;;;;3.92;2.00;;;10.30;92.80;;;;;;5091585;28;20051;-29
2024/02/18 11:55:19;;;;;;;4.32;1.95;;;10.20;92.70;;;;;;5090074;28;20016;-29
2024/02/18 11:57:46;;;;;;;5.57;2.42;;;10.20;92.70;;;;;;5091561;28;20028;-30
2024/02/18 12:00:13;;;;;;;5.88;2.40;;;10.20;93.00;;;;;;5091518;28;20103;-30
2024/02/18 12:02:40;;;;;;;6.97;2.35;;;10.20;93.10;;;;;;5091804;28;20460;-29
2024/02/18 12:05:06;;;;;;;8.07;2.55;;;10.20;93.00;;;;;;5091349;28;20036;-30
2024/02/18 12:07:36;;;;;;;6.13;2.30;;;10.20;93.00;;;;;;5090193;28;20032;-30
2024/02/18 12:10:02;;;;;;;6.95;2.25;;;10.20;93.00;;;;;;5091838;28;20117;-32
2024/02/18 12:12:27;;;;;;;4.78;2.25;;;10.10;93.10;;;;;;5091297;28;20020;-31
2024/02/18 12:14:55;;;;;;;6.65;2.45;;;10.10;93.10;;;;;;5091335;28;20487;-29
2024/02/18 12:17:22;;;;;;;4.28;2.10;;;10.10;93.10;;;;;;5091443;28;20116;-29
2024/02/18 12:19:49;;;;;;;5.05;1.90;;;10.10;93.00;;;;;;5091569;28;20361;-29
2024/02/18 12:22:33;;;;;;;4.20;2.10;;;10.10;93.10;;;;;;5091582;28;20376;-30
2024/02/18 12:24:59;;;;;;;3.85;2.10;;;10.10;93.10;;;;;;5091741;28;20380;-29
2024/02/18 12:27:25;;;;;;;4.20;1.77;;;10.10;93.10;;;;;;5091374;28;20020;-30
2024/02/18 12:29:52;;;;;;;4.28;1.98;;;10.00;93.10;;;;;;5089864;28;20365;-33
2024/02/18 12:32:18;;;;;;;4.63;2.10;;;10.00;93.10;;;;;;5091302;28;20020;-32
2024/02/18 12:34:47;;;;;;;5.80;2.17;;;10.00;93.10;;;;;;5091010;28;20102;-31
2024/02/18 12:37:13;;;;;;;4.75;2.40;;;10.00;93.00;;;;;;5091126;28;20082;-31
2024/02/18 12:39:39;;;;;;;3.65;2.13;;;10.00;93.00;;;;;;5091178;28;20025;-29
2024/02/18 12:42:05;;;;;;;3.53;2.28;;;10.00;93.00;;;;;;5090870;28;20377;-30